Time;durP1;ratioP1;P1;durP2;ratioP2;P2;SDS_P1;SDS_P2;PMS_P1;PMS_P2;Temp;Humidity;BMP_temperature;BMP_pressure;BME280_temperature;BME280_humidity;BME280_pressure;Samples;Min_cycle;Max_cycle;Signal;HPM_P1;HPM_P2
2024/01/16 00:01:57;;;;;;;1.52;0.80;;;;;;;0.22;100.00;97051.44;15285058;19;20213;-58
2024/01/16 00:07:22;;;;;;;2.80;0.93;;;;;;;0.22;100.00;97035.53;15293691;19;20014;-60
2024/01/16 00:12:50;;;;;;;2.40;1.00;;;;;;;0.22;100.00;97046.13;15294374;19;20022;-59
2024/01/16 00:18:21;;;;;;;2.65;1.00;;;;;;;0.19;100.00;97062.28;15290715;19;20021;-58
2024/01/16 00:23:46;;;;;;;1.90;0.80;;;;;;;0.16;100.00;97059.91;15285644;19;20082;-58
2024/01/16 00:29:13;;;;;;;1.83;0.70;;;;;;;0.05;100.00;97065.28;15290941;19;20019;-59
2024/01/16 00:34:38;;;;;;;2.30;1.00;;;;;;;0.01;100.00;97062.03;15294558;19;20014;-58
2024/01/16 00:40:04;;;;;;;2.20;0.80;;;;;;;0.01;100.00;97075.25;15296315;19;20014;-59
2024/01/16 00:45:33;;;;;;;1.00;0.73;;;;;;;0.04;100.00;97068.88;15298025;19;20021;-59
2024/01/16 00:50:57;;;;;;;3.25;0.90;;;;;;;0.13;100.00;97071.59;15294320;19;20021;-61
2024/01/16 00:56:32;;;;;;;3.88;0.98;;;;;;;0.19;100.00;97070.22;15288907;19;20020;-58
2024/01/16 01:02:09;;;;;;;2.53;0.70;;;;;;;0.24;100.00;97077.78;15271260;19;20025;-52
2024/01/16 01:07:34;;;;;;;3.97;0.80;;;;;;;0.27;100.00;97088.97;15287778;19;20096;-53
2024/01/16 01:12:59;;;;;;;1.73;0.80;;;;;;;0.25;100.00;97079.47;15285708;19;20007;-50
2024/01/16 01:18:26;;;;;;;2.40;0.82;;;;;;;0.27;100.00;97104.00;15293522;19;20025;-50
2024/01/16 01:23:50;;;;;;;2.22;0.80;;;;;;;0.28;100.00;97095.97;15287533;19;20073;-53
2024/01/16 01:29:16;;;;;;;2.38;0.98;;;;;;;0.32;100.00;97103.63;15292349;19;20014;-52
2024/01/16 01:34:43;;;;;;;1.58;0.80;;;;;;;0.33;100.00;97102.66;15284804;19;20086;-51
2024/01/16 01:40:12;;;;;;;1.73;0.82;;;;;;;0.34;100.00;97133.47;15288124;19;20082;-48
2024/01/16 01:45:36;;;;;;;2.90;0.90;;;;;;;0.35;100.00;97117.47;15291785;19;20020;-53
2024/01/16 01:51:04;;;;;;;2.63;1.17;;;;;;;0.37;100.00;97122.63;15286017;19;20101;-48
2024/01/16 01:56:30;;;;;;;2.20;0.85;;;;;;;0.37;100.00;97151.78;15285709;19;20025;-50
2024/01/16 02:02:02;;;;;;;2.72;0.98;;;;;;;0.35;100.00;97159.00;15287958;19;20028;-48
2024/01/16 02:07:31;;;;;;;3.22;0.95;;;;;;;0.37;100.00;97180.91;15279079;19;20014;-53
2024/01/16 02:12:56;;;;;;;1.83;0.85;;;;;;;0.39;100.00;97176.34;15284607;19;20024;-52
2024/01/16 02:18:20;;;;;;;1.20;0.90;;;;;;;0.37;100.00;97186.22;15285039;19;20090;-50
2024/01/16 02:23:48;;;;;;;2.60;0.95;;;;;;;0.38;100.00;97187.91;15283909;19;20025;-53
2024/01/16 02:29:13;;;;;;;2.88;0.88;;;;;;;0.41;100.00;97203.53;15285503;19;20018;-50
2024/01/16 02:34:38;;;;;;;2.13;0.95;;;;;;;0.40;100.00;97202.69;15281524;19;20014;-54
2024/01/16 02:40:07;;;;;;;2.97;0.90;;;;;;;0.38;100.00;97201.97;15285916;19;20439;-52
2024/01/16 02:45:33;;;;;;;3.03;0.80;;;;;;;0.38;100.00;97203.78;15294000;19;20074;-49
2024/01/16 02:50:57;;;;;;;2.05;0.70;;;;;;;0.39;100.00;97218.72;15288685;19;20093;-49
2024/01/16 02:56:25;;;;;;;1.83;0.82;;;;;;;0.38;100.00;97231.13;15299100;19;20014;-52
2024/01/16 03:01:49;;;;;;;2.35;0.90;;;;;;;0.36;100.00;97232.22;15298408;19;20085;-49
2024/01/16 03:07:15;;;;;;;4.10;1.33;;;;;;;0.29;100.00;97230.06;15299790;19;20022;-50
2024/01/16 03:12:42;;;;;;;3.45;1.23;;;;;;;0.22;100.00;97247.44;15298219;19;20019;-53
2024/01/16 03:18:07;;;;;;;1.80;0.80;;;;;;;0.14;100.00;97256.00;15293799;19;20620;-51
2024/01/16 03:23:31;;;;;;;2.90;0.80;;;;;;;0.15;100.00;97262.16;15301911;19;20014;-52
2024/01/16 03:28:59;;;;;;;2.53;0.80;;;;;;;0.17;100.00;97254.94;15300206;19;20078;-49
2024/01/16 03:34:23;;;;;;;1.60;0.70;;;;;;;0.18;100.00;97269.81;15301868;19;20026;-50
2024/01/16 03:39:48;;;;;;;1.52;0.80;;;;;;;0.20;100.00;97297.03;15296141;19;20011;-52
2024/01/16 03:45:16;;;;;;;2.15;1.00;;;;;;;0.19;100.00;97275.97;15286801;19;20014;-50
2024/01/16 03:50:43;;;;;;;1.92;0.70;;;;;;;0.13;100.00;97267.56;15297800;19;20018;-51
2024/01/16 03:56:08;;;;;;;3.28;0.93;;;;;;;0.14;100.00;97294.91;15298080;19;20018;-49
2024/01/16 04:01:45;;;;;;;2.90;1.05;;;;;;;0.00;100.00;97303.97;15292241;19;20026;-49
2024/01/16 04:07:10;;;;;;;3.58;1.17;;;;;;;-0.26;100.00;97298.91;15299423;19;20015;-52
2024/01/16 04:12:35;;;;;;;3.45;1.30;;;;;;;-0.44;100.00;97309.16;15295982;19;20014;-49
2024/01/16 04:18:03;;;;;;;3.40;1.20;;;;;;;-0.50;100.00;97312.25;15290700;19;20016;-50
2024/01/16 04:23:27;;;;;;;1.80;1.20;;;;;;;-0.56;100.00;97318.03;15293708;19;20105;-52
2024/01/16 04:28:51;;;;;;;4.28;1.02;;;;;;;-0.57;100.00;97334.84;15285926;19;20022;-51
2024/01/16 04:34:18;;;;;;;1.83;0.90;;;;;;;-0.59;100.00;97334.13;15282798;19;20018;-50
2024/01/16 04:39:43;;;;;;;5.40;1.15;;;;;;;-0.57;100.00;97340.97;15287793;19;20019;-50
2024/01/16 04:45:08;;;;;;;2.70;1.10;;;;;;;-0.53;100.00;97344.25;15298325;19;20010;-52
2024/01/16 04:50:35;;;;;;;1.48;1.00;;;;;;;-0.57;100.00;97343.63;15292226;19;20452;-50
2024/01/16 04:56:00;;;;;;;2.80;1.00;;;;;;;-0.66;100.00;97350.50;15297036;19;20826;-53
2024/01/16 05:01:32;;;;;;;3.47;1.10;;;;;;;-0.70;100.00;97351.66;15291957;19;20405;-56
2024/01/16 05:06:59;;;;;;;3.10;1.02;;;;;;;-0.79;100.00;97339.16;15291558;19;20017;-49
2024/01/16 05:12:24;;;;;;;2.95;1.30;;;;;;;-0.79;100.00;97366.44;15294545;19;20010;-50
2024/01/16 05:17:49;;;;;;;3.03;1.08;;;;;;;-0.84;100.00;97357.16;15283801;19;20550;-55
2024/01/16 05:23:17;;;;;;;3.47;1.20;;;;;;;-0.93;100.00;97354.25;15287844;19;20038;-50
2024/01/16 05:28:42;;;;;;;3.72;1.00;;;;;;;-1.00;100.00;97339.81;15184865;19;2004282;-51
2024/01/16 05:34:07;;;;;;;4.25;1.30;;;;;;;-1.01;100.00;97361.94;15281102;19;20078;-51
2024/01/16 05:39:34;;;;;;;2.72;1.10;;;;;;;-1.06;100.00;97353.50;15281459;19;20022;-48
2024/01/16 05:44:59;;;;;;;3.10;1.05;;;;;;;-1.01;100.00;97379.56;15292239;19;20027;-52
2024/01/16 05:50:23;;;;;;;3.63;1.10;;;;;;;-0.97;100.00;97386.34;15284762;19;20025;-57
2024/01/16 05:55:51;;;;;;;5.68;1.35;;;;;;;-1.03;100.00;97390.28;15288598;19;20365;-55
2024/01/16 06:01:22;;;;;;;3.95;1.38;;;;;;;-1.08;100.00;97389.75;15288035;19;20021;-49
2024/01/16 06:06:47;;;;;;;3.00;1.10;;;;;;;-1.13;100.00;97389.28;15287782;19;20616;-52
2024/01/16 06:12:16;;;;;;;5.75;1.38;;;;;;;-1.03;100.00;97378.84;15291717;19;20017;-49
2024/01/16 06:17:40;;;;;;;4.55;1.50;;;;;;;-1.07;100.00;97372.94;15287662;19;20101;-48
2024/01/16 06:23:05;;;;;;;4.70;1.40;;;;;;;-1.00;100.00;97394.47;15285896;19;20029;-48
2024/01/16 06:28:32;;;;;;;3.70;1.33;;;;;;;-0.99;100.00;97389.06;15288160;19;20033;-53
2024/01/16 06:33:57;;;;;;;5.13;1.50;;;;;;;-1.00;100.00;97390.03;15290593;19;20011;-50
2024/01/16 06:39:21;;;;;;;3.65;1.45;;;;;;;-1.10;100.00;97397.81;15285239;19;20526;-53
2024/01/16 06:44:49;;;;;;;2.15;1.20;;;;;;;-1.13;100.00;97408.59;15289597;19;20078;-53
2024/01/16 06:50:13;;;;;;;2.85;1.27;;;;;;;-1.12;100.00;97414.75;15285009;19;20089;-52
2024/01/16 06:55:38;;;;;;;3.60;1.30;;;;;;;-1.05;100.00;97421.25;15278437;19;20479;-52
2024/01/16 07:01:14;;;;;;;4.80;1.40;;;;;;;-1.04;100.00;97433.53;15283110;19;20015;-75
2024/01/16 07:06:45;;;;;;;3.38;1.42;;;;;;;-1.12;100.00;97442.00;15287126;19;20019;-76
2024/01/16 07:12:14;;;;;;;5.10;1.70;;;;;;;-1.18;100.00;97436.34;15317117;19;20026;-76
2024/01/16 07:17:41;;;;;;;2.63;1.33;;;;;;;-1.17;100.00;97443.31;15287207;19;20022;-78
2024/01/16 07:23:06;;;;;;;5.50;1.60;;;;;;;-1.21;100.00;97442.69;15287522;19;20022;-76
2024/01/16 07:28:33;;;;;;;7.30;1.75;;;;;;;-1.24;100.00;97456.13;15343555;19;20114;-76
2024/01/16 07:34:01;;;;;;;4.95;1.60;;;;;;;-1.28;100.00;97446.72;15346685;19;20006;-78
2024/01/16 07:39:25;;;;;;;4.32;1.40;;;;;;;-1.39;100.00;97460.72;15297559;19;20718;-76
2024/01/16 07:44:50;;;;;;;3.75;1.27;;;;;;;-1.37;100.00;97465.88;15303029;19;20022;-76
2024/01/16 07:50:17;;;;;;;4.65;1.63;;;;;;;-1.36;100.00;97464.94;15296716;19;20011;-77
2024/01/16 07:55:42;;;;;;;4.13;1.48;;;;;;;-1.31;100.00;97476.84;15297837;19;20011;-77
2024/01/16 08:01:13;;;;;;;2.78;1.35;;;;;;;-1.32;100.00;97471.69;15295163;19;20416;-75
2024/01/16 08:06:40;;;;;;;4.25;1.42;;;;;;;-1.33;100.00;97476.13;15297576;19;20021;-77
2024/01/16 08:12:05;;;;;;;3.67;1.60;;;;;;;-1.35;100.00;97470.09;15297406;19;20074;-76
2024/01/16 08:17:31;;;;;;;2.25;1.30;;;;;;;-1.31;100.00;97470.75;15296305;19;20098;-75
2024/01/16 08:22:58;;;;;;;4.60;1.30;;;;;;;-1.25;100.00;97473.78;15304003;19;20019;-76
2024/01/16 08:28:25;;;;;;;5.93;1.75;;;;;;;-1.12;100.00;97475.53;15297553;19;20567;-75
2024/01/16 08:33:50;;;;;;;2.53;1.20;;;;;;;-1.06;100.00;97466.31;15316337;19;20014;-75
2024/01/16 08:39:19;;;;;;;3.50;1.20;;;;;;;-1.01;100.00;97474.75;15293750;19;20014;-76
2024/01/16 08:44:44;;;;;;;4.03;1.50;;;;;;;-0.98;100.00;97472.72;15293617;19;20024;-80
2024/01/16 08:50:10;;;;;;;3.47;1.20;;;;;;;-0.94;100.00;97471.53;15275137;19;20026;-82
2024/01/16 08:55:38;;;;;;;3.38;1.27;;;;;;;-0.87;100.00;97474.59;15300573;19;20015;-82
2024/01/16 09:01:02;;;;;;;4.07;1.30;;;;;;;-0.76;100.00;97486.16;15039008;19;5001370;-81
2024/01/16 09:06:28;;;;;;;4.03;1.17;;;;;;;-0.67;100.00;97489.00;15301155;19;20451;-84
2024/01/16 09:11:57;;;;;;;3.45;1.30;;;;;;;-0.55;100.00;97491.69;15304177;19;20006;-84
2024/01/16 09:17:25;;;;;;;3.20;1.10;;;;;;;-0.47;100.00;97489.28;15306014;19;20022;-85
2024/01/16 09:22:50;;;;;;;2.15;1.05;;;;;;;-0.38;100.00;97499.19;15301129;19;20024;-85
2024/01/16 09:28:18;;;;;;;2.00;0.90;;;;;;;-0.24;100.00;97502.59;15305526;19;20014;-85
2024/01/16 09:33:47;;;;;;;2.92;1.20;;;;;;;-0.12;100.00;97488.44;15301029;19;20007;-84
2024/01/16 09:39:04;;;;;;;4.82;1.00;;;;;;;-0.02;100.00;97494.69;15304072;19;20015;-86
2024/01/16 09:44:34;;;;;;;2.47;1.35;;;;;;;0.10;100.00;97489.41;15301345;19;20781;-84
2024/01/16 09:49:58;;;;;;;3.38;1.00;;;;;;;0.21;100.00;97500.03;15301873;19;20018;-84
2024/01/16 09:55:23;;;;;;;2.70;1.13;;;;;;;0.35;100.00;97506.06;15281208;19;20370;-84
2024/01/16 10:00:52;;;;;;;4.28;1.20;;;;;;;0.43;100.00;97503.66;15298146;19;20549;-81
2024/01/16 10:06:20;;;;;;;5.10;1.25;;;;;;;0.53;100.00;97520.50;15297558;19;20019;-83
2024/01/16 10:11:46;;;;;;;3.13;1.13;;;;;;;0.58;100.00;97507.75;15299247;19;20006;-85
2024/01/16 10:17:15;;;;;;;2.40;1.05;;;;;;;0.61;100.00;97522.56;15294416;19;20081;-84
2024/01/16 10:22:45;;;;;;;2.58;1.08;;;;;;;0.68;100.00;97522.91;15298325;19;20018;-86
2024/01/16 10:28:11;;;;;;;2.97;1.23;;;;;;;0.74;100.00;97522.44;15050314;19;5000976;-85
2024/01/16 10:33:43;;;;;;;3.45;1.30;;;;;;;0.73;100.00;97510.16;15296821;19;20031;-85
2024/01/16 10:39:08;;;;;;;1.98;0.90;;;;;;;0.75;100.00;97509.06;15297644;19;20031;-82
2024/01/16 10:44:40;;;;;;;2.30;0.90;;;;;;;0.75;100.00;97503.75;15298868;19;20043;-83
2024/01/16 10:50:09;;;;;;;4.05;1.30;;;;;;;0.79;100.00;97509.66;15291845;19;20093;-84
2024/01/16 10:55:37;;;;;;;1.88;0.82;;;;;;;0.83;100.00;97508.47;15295595;19;20366;-88
2024/01/16 11:01:09;;;;;;;2.50;0.88;;;;;;;0.86;100.00;97504.72;15311523;19;20018;-83
2024/01/16 11:06:37;;;;;;;2.97;1.10;;;;;;;0.88;100.00;97508.91;15290915;19;20020;-85
2024/01/16 11:12:03;;;;;;;2.70;1.00;;;;;;;0.93;100.00;97505.91;15288822;19;20010;-86
2024/01/16 11:17:28;;;;;;;2.92;1.10;;;;;;;0.95;100.00;97500.47;15310854;19;20078;-85
2024/01/16 11:22:59;;;;;;;3.10;1.17;;;;;;;0.97;100.00;97501.22;15305426;19;20453;-83
2024/01/16 11:28:24;;;;;;;3.58;1.17;;;;;;;1.01;100.00;97495.53;15313501;19;20380;-85
2024/01/16 11:33:57;;;;;;;2.70;1.10;;;;;;;1.05;100.00;97498.78;15309797;19;20047;-83
2024/01/16 11:39:26;;;;;;;2.63;1.10;;;;;;;1.09;100.00;97502.88;15303458;19;20014;-83
2024/01/16 11:44:55;;;;;;;3.05;1.10;;;;;;;1.14;100.00;97507.81;15300080;19;20078;-84
2024/01/16 11:50:31;;;;;;;3.05;1.10;;;;;;;1.17;100.00;97491.66;15305878;19;20011;-83
2024/01/16 11:56:25;;;;;;;2.37;1.05;;;;;;;1.26;100.00;97495.34;13496514;19;10000767;-84
2024/01/16 12:02:02;;;;;;;2.75;1.10;;;;;;;1.27;100.00;97491.72;13823962;19;10002017;-83
2024/01/16 12:07:27;;;;;;;2.78;1.10;;;;;;;1.27;100.00;97489.91;15309205;19;20007;-86
2024/01/16 12:13:02;;;;;;;3.55;1.25;;;;;;;1.27;100.00;97473.13;15310709;19;20007;-83
2024/01/16 12:18:28;;;;;;;4.97;1.10;;;;;;;1.26;100.00;97472.31;15311103;19;20570;-84
2024/01/16 12:24:03;;;;;;;1.77;1.10;;;;;;;1.25;100.00;97461.81;15307038;19;20020;-84
2024/01/16 12:29:37;;;;;;;3.38;1.45;;;;;;;1.29;100.00;97465.91;15302998;19;20031;-86
2024/01/16 12:35:01;;;;;;;2.03;1.10;;;;;;;1.38;100.00;97451.88;15307799;19;20014;-84
2024/01/16 12:40:26;;;;;;;2.67;1.33;;;;;;;1.36;100.00;97456.44;15305337;19;20050;-85
2024/01/16 12:45:58;;;;;;;3.00;1.30;;;;;;;1.38;100.00;97458.03;15306565;19;20066;-86
2024/01/16 12:51:30;;;;;;;2.00;1.10;;;;;;;1.38;100.00;97460.69;15307520;19;20073;-86
2024/01/16 12:57:00;;;;;;;1.90;1.00;;;;;;;1.35;100.00;97466.25;15310100;19;20483;-85
2024/01/16 13:02:30;;;;;;;1.73;0.82;;;;;;;1.29;100.00;97458.78;15307848;19;20020;-84
2024/01/16 13:08:19;;;;;;;2.80;1.02;;;;;;;1.23;100.00;97460.13;15310200;19;20027;-84
2024/01/16 13:13:45;;;;;;;1.98;1.10;;;;;;;1.19;100.00;97469.31;15311079;19;20024;-84
2024/01/16 13:19:12;;;;;;;3.65;1.10;;;;;;;1.15;100.00;97470.53;15306759;19;20322;-87
2024/01/16 13:24:41;;;;;;;3.13;0.90;;;;;;;1.11;100.00;97469.09;15301903;19;20370;-86
2024/01/16 13:30:19;;;;;;;2.05;1.08;;;;;;;1.06;100.00;97453.53;15312752;19;20029;-86
2024/01/16 13:36:04;;;;;;;2.55;1.00;;;;;;;1.06;100.00;97448.25;15310594;19;20010;-86
2024/01/16 13:41:33;;;;;;;1.70;0.90;;;;;;;1.05;100.00;97446.59;15312207;19;20010;-84
2024/01/16 13:46:58;;;;;;;2.05;1.00;;;;;;;1.06;100.00;97434.97;15319276;19;20021;-86
2024/01/16 13:52:31;;;;;;;1.90;0.95;;;;;;;1.08;100.00;97437.53;15320705;19;20647;-85
2024/01/16 13:57:57;;;;;;;2.17;1.00;;;;;;;1.07;100.00;97430.53;15329215;19;20345;-86
2024/01/16 14:03:23;;;;;;;4.68;1.13;;;;;;;1.05;100.00;97430.66;15313968;19;20018;-84
2024/01/16 14:08:51;;;;;;;1.83;0.90;;;;;;;1.04;100.00;97434.28;15306450;19;20078;-84
2024/01/16 14:14:17;;;;;;;2.00;1.08;;;;;;;0.99;100.00;97422.38;15303032;19;20027;-83
2024/01/16 14:19:45;;;;;;;2.22;1.20;;;;;;;0.92;100.00;97417.56;15307880;19;20094;-85
2024/01/16 14:25:14;;;;;;;2.92;1.10;;;;;;;0.88;100.00;97410.81;15305717;19;20027;-84
2024/01/16 14:30:41;;;;;;;3.53;1.08;;;;;;;0.85;100.00;97413.72;15306206;19;20484;-84
2024/01/16 14:36:08;;;;;;;4.07;1.10;;;;;;;0.82;100.00;97413.97;15302078;19;20093;-86
2024/01/16 14:41:36;;;;;;;3.50;1.20;;;;;;;0.80;100.00;97426.50;15303812;19;20015;-85
2024/01/16 14:47:01;;;;;;;5.15;1.10;;;;;;;0.75;100.00;97423.41;15302786;19;20057;-82
2024/01/16 14:52:26;;;;;;;2.28;1.20;;;;;;;0.72;100.00;97429.78;15317898;19;20010;-84
2024/01/16 14:57:59;;;;;;;1.67;1.10;;;;;;;0.66;100.00;97427.63;15313163;19;20010;-84
2024/01/16 15:03:25;;;;;;;1.10;0.88;;;;;;;0.64;100.00;97434.03;15323419;19;20050;-84
2024/01/16 15:08:51;;;;;;;1.95;1.00;;;;;;;0.56;100.00;97419.56;15319955;19;20022;-84
2024/01/16 15:14:20;;;;;;;2.28;1.10;;;;;;;0.55;100.00;97423.19;15300444;19;20014;-83
2024/01/16 15:19:47;;;;;;;2.75;1.10;;;;;;;0.52;100.00;97428.75;15323358;19;20416;-83
2024/01/16 15:25:21;;;;;;;2.30;1.38;;;;;;;0.46;100.00;97429.22;15332171;19;20019;-83
2024/01/16 15:31:06;;;;;;;1.90;1.20;;;;;;;0.41;100.00;97431.41;15361113;19;20002;-85
2024/01/16 15:36:35;;;;;;;4.57;1.10;;;;;;;0.37;100.00;97420.19;15375984;19;20022;-86
2024/01/16 15:41:59;;;;;;;2.95;1.65;;;;;;;0.34;100.00;97414.28;15371113;19;20013;-86
2024/01/16 15:47:24;;;;;;;3.47;1.75;;;;;;;0.28;100.00;97415.63;15305414;19;20011;-84
2024/01/16 15:52:55;;;;;;;3.47;2.08;;;;;;;0.24;100.00;97419.47;15297972;19;20379;-84
2024/01/16 15:58:13;;;;;;;2.85;1.90;;;;;;;0.15;100.00;97419.25;15300469;19;20015;-83
2024/01/16 16:03:37;;;;;;;4.03;1.83;;;;;;;0.09;100.00;97422.38;15313399;19;20031;-84
2024/01/16 16:09:06;;;;;;;3.10;1.63;;;;;;;0.04;100.00;97431.66;15298985;19;20016;-84
2024/01/16 16:14:32;;;;;;;4.60;2.60;;;;;;;-0.04;100.00;97427.78;15278592;19;20031;-84
2024/01/16 16:19:57;;;;;;;4.43;2.75;;;;;;;-0.08;100.00;97436.94;15298481;19;20018;-86
2024/01/16 16:25:24;;;;;;;4.47;2.15;;;;;;;-0.13;100.00;97448.84;15297941;19;20086;-85
2024/01/16 16:30:49;;;;;;;4.72;1.90;;;;;;;-0.21;100.00;97457.38;15312652;19;20031;-86
2024/01/16 16:36:14;;;;;;;4.22;2.60;;;;;;;-0.27;100.00;97461.31;15301181;19;20356;-83
2024/01/16 16:41:41;;;;;;;4.22;2.08;;;;;;;-0.34;100.00;97463.59;15310717;19;20019;-85
2024/01/16 16:47:15;;;;;;;5.35;2.10;;;;;;;-0.44;100.00;97462.59;15314386;19;20011;-82
2024/01/16 16:52:40;;;;;;;3.58;2.10;;;;;;;-0.51;100.00;97464.00;15322187;19;20006;-85
2024/01/16 16:58:09;;;;;;;4.80;2.05;;;;;;;-0.59;100.00;97471.69;15311652;19;20097;-85
2024/01/16 17:03:34;;;;;;;3.67;1.88;;;;;;;-0.68;100.00;97468.78;15305673;19;20019;-83
2024/01/16 17:08:59;;;;;;;7.72;2.55;;;;;;;-0.78;100.00;97475.72;15304650;19;20550;-84
2024/01/16 17:14:26;;;;;;;4.85;2.50;;;;;;;-0.83;100.00;97462.84;15313291;19;20034;-86
2024/01/16 17:19:51;;;;;;;5.10;3.10;;;;;;;-0.89;100.00;97447.41;15310477;19;20058;-85
2024/01/16 17:25:17;;;;;;;5.72;3.53;;;;;;;-0.93;100.00;97446.78;15317969;19;20074;-84
2024/01/16 17:30:46;;;;;;;6.70;3.65;;;;;;;-0.97;100.00;97455.06;15309522;19;20011;-84
2024/01/16 17:36:13;;;;;;;10.25;4.65;;;;;;;-1.01;100.00;97458.88;15300878;19;20018;-84
2024/01/16 17:41:39;;;;;;;9.38;4.53;;;;;;;-1.08;100.00;97458.47;15300112;19;20010;-88
2024/01/16 17:47:13;;;;;;;5.18;2.97;;;;;;;-1.19;100.00;97472.50;15302179;19;20430;-83
2024/01/16 17:52:39;;;;;;;5.90;3.20;;;;;;;-1.25;100.00;97484.34;15297602;19;20022;-85
2024/01/16 17:58:03;;;;;;;6.15;3.00;;;;;;;-1.35;100.00;97478.00;15297255;19;20078;-86
2024/01/16 18:03:30;;;;;;;5.60;3.05;;;;;;;-1.46;100.00;97467.38;15301443;19;20014;-85
2024/01/16 18:09:09;;;;;;;7.10;3.08;;;;;;;-1.50;100.00;97463.28;15308157;19;20029;-85
2024/01/16 18:14:34;;;;;;;4.30;2.78;;;;;;;-1.56;100.00;97457.47;15306691;19;20126;-85
2024/01/16 18:20:01;;;;;;;6.07;2.97;;;;;;;-1.62;100.00;97459.69;15301537;19;20424;-85
2024/01/16 18:25:27;;;;;;;6.70;3.03;;;;;;;-1.70;100.00;97465.50;15302210;19;20530;-86
2024/01/16 18:30:52;;;;;;;6.00;3.00;;;;;;;-1.79;100.00;97464.38;15297840;19;20474;-85
2024/01/16 18:36:19;;;;;;;5.65;3.17;;;;;;;-1.84;100.00;97463.03;15302680;19;20015;-87
2024/01/16 18:41:45;;;;;;;4.30;2.80;;;;;;;-1.89;100.00;97458.06;15301754;19;20441;-84
2024/01/16 18:47:16;;;;;;;6.13;3.22;;;;;;;-1.96;100.00;97462.94;15300587;19;20035;-81
2024/01/16 18:52:45;;;;;;;4.85;2.97;;;;;;;-2.04;100.00;97463.44;15304316;19;20047;-83
2024/01/16 18:58:10;;;;;;;6.13;3.10;;;;;;;-2.10;100.00;97455.13;15307957;19;20014;-84
2024/01/16 19:03:35;;;;;;;5.80;2.95;;;;;;;-2.15;100.00;97457.22;15304394;19;20351;-83
2024/01/16 19:09:05;;;;;;;5.47;2.70;;;;;;;-2.21;100.00;97454.06;15304388;19;20018;-83
2024/01/16 19:14:30;;;;;;;6.32;3.30;;;;;;;-2.31;100.00;97447.72;15305579;19;20024;-82
2024/01/16 19:20:03;;;;;;;4.80;2.88;;;;;;;-2.42;100.00;97445.81;15304928;19;20038;-81
2024/01/16 19:25:35;;;;;;;4.95;2.70;;;;;;;-2.45;100.00;97439.91;15313918;19;20007;-80
2024/01/16 19:30:53;;;;;;;6.53;3.25;;;;;;;-2.43;100.00;97443.28;15358513;19;20018;-80
2024/01/16 19:42:09;;;;;;;7.90;3.20;;;;;;;-2.58;100.00;97435.47;15384220;19;19983;-80
2024/01/16 19:47:44;;;;;;;5.82;3.65;;;;;;;-2.67;100.00;97431.63;15326974;19;20018;-84
2024/01/16 19:59:48;;;;;;;5.13;3.53;;;;;;;-2.79;100.00;97448.28;15317898;19;20015;-84
2024/01/16 20:05:23;;;;;;;9.18;4.05;;;;;;;-2.80;100.00;97452.72;15316696;19;20007;-84
2024/01/16 20:10:55;;;;;;;7.15;3.90;;;;;;;-2.81;100.00;97450.16;15311953;19;20014;-85
2024/01/16 20:16:25;;;;;;;6.63;3.72;;;;;;;-2.83;100.00;97444.16;15306386;19;20018;-84
2024/01/16 20:21:55;;;;;;;6.38;3.65;;;;;;;-2.85;100.00;97428.44;15305069;19;20019;-83
2024/01/16 20:27:20;;;;;;;7.78;3.78;;;;;;;-2.87;100.00;97429.50;15318853;19;20013;-83
2024/01/16 20:32:49;;;;;;;6.68;4.30;;;;;;;-2.91;100.00;97415.69;15304966;19;20007;-84
2024/01/16 20:38:14;;;;;;;8.35;4.10;;;;;;;-2.94;100.00;97415.88;15304767;19;20122;-83
2024/01/16 20:43:39;;;;;;;6.95;3.53;;;;;;;-2.96;100.00;97416.00;15301228;19;20014;-85
2024/01/16 20:49:16;;;;;;;5.75;3.78;;;;;;;-2.95;100.00;97414.19;15303082;19;20025;-84
2024/01/16 20:54:42;;;;;;;6.18;3.67;;;;;;;-2.95;100.00;97407.13;15303306;19;20030;-84
2024/01/16 21:00:11;;;;;;;6.72;3.70;;;;;;;-2.91;100.00;97397.22;15302135;19;20044;-85
2024/01/16 21:05:39;;;;;;;7.25;3.72;;;;;;;-2.86;100.00;97400.38;15303806;19;20097;-85
2024/01/16 21:11:03;;;;;;;9.95;4.60;;;;;;;-2.87;100.00;97403.97;15303960;19;20497;-84
2024/01/16 21:16:29;;;;;;;8.98;5.10;;;;;;;-2.86;100.00;97399.56;15312671;19;20014;-83
2024/01/16 21:21:57;;;;;;;7.78;4.63;;;;;;;-2.90;100.00;97391.00;15299476;19;20087;-83
2024/01/16 21:27:22;;;;;;;8.50;5.28;;;;;;;-2.95;100.00;97401.00;15300323;19;20032;-85
2024/01/16 21:32:47;;;;;;;7.55;4.47;;;;;;;-2.96;100.00;97404.59;15295836;19;20043;-84
2024/01/16 21:38:15;;;;;;;6.70;4.15;;;;;;;-3.04;100.00;97391.09;15295563;19;20002;-84
2024/01/16 21:43:40;;;;;;;6.10;3.30;;;;;;;-3.08;100.00;97386.94;15292136;19;20081;-84
2024/01/16 21:49:11;;;;;;;6.65;3.72;;;;;;;-3.11;100.00;97382.75;15292165;19;20015;-82
2024/01/16 21:54:38;;;;;;;8.18;3.75;;;;;;;-3.17;100.00;97364.69;15291470;19;20040;-82
2024/01/16 22:00:04;;;;;;;7.70;4.10;;;;;;;-3.19;100.00;97362.16;15294955;19;20010;-83
2024/01/16 22:05:29;;;;;;;7.60;4.18;;;;;;;-3.19;100.00;97341.09;15295315;19;20010;-85
2024/01/16 22:10:56;;;;;;;5.40;3.72;;;;;;;-3.19;100.00;97337.63;15294395;19;20007;-83
2024/01/16 22:16:27;;;;;;;8.77;4.03;;;;;;;-3.22;100.00;97320.22;15294564;19;20034;-82
2024/01/16 22:21:52;;;;;;;9.50;4.30;;;;;;;-3.25;100.00;97316.00;15297124;19;20109;-83
2024/01/16 22:27:19;;;;;;;7.38;4.50;;;;;;;-3.27;100.00;97317.06;15292739;19;20468;-84
2024/01/16 22:32:44;;;;;;;8.88;4.20;;;;;;;-3.25;100.00;97309.91;15298440;19;20018;-85
2024/01/16 22:38:08;;;;;;;7.50;3.78;;;;;;;-3.23;100.00;97301.88;15316539;19;20031;-83
2024/01/16 22:43:36;;;;;;;6.57;4.38;;;;;;;-3.23;100.00;97291.34;15290387;19;20093;-83
2024/01/16 22:49:07;;;;;;;7.38;3.90;;;;;;;-3.28;100.00;97289.84;15291683;19;20110;-82
2024/01/16 22:54:32;;;;;;;6.43;4.50;;;;;;;-3.31;100.00;97294.50;15293058;19;20036;-84
2024/01/16 22:59:59;;;;;;;11.95;4.38;;;;;;;-3.36;100.00;97301.88;15290849;19;20010;-82
2024/01/16 23:05:24;;;;;;;6.88;4.45;;;;;;;-3.42;100.00;97288.16;15298295;19;20055;-82
2024/01/16 23:10:49;;;;;;;8.07;4.55;;;;;;;-3.43;100.00;97286.47;15299773;19;20010;-83
2024/01/16 23:16:17;;;;;;;8.18;4.22;;;;;;;-3.51;100.00;97269.47;15305311;19;20559;-82
2024/01/16 23:21:41;;;;;;;8.98;4.20;;;;;;;-3.57;100.00;97253.16;15303988;19;20015;-83
2024/01/16 23:27:10;;;;;;;7.45;3.78;;;;;;;-3.63;100.00;97244.84;15306994;19;20019;-82
2024/01/16 23:32:38;;;;;;;5.93;3.92;;;;;;;-3.69;100.00;97238.19;15301241;19;20018;-83
2024/01/16 23:38:03;;;;;;;6.93;3.92;;;;;;;-3.79;100.00;97229.22;15053326;19;5001535;-83
2024/01/16 23:43:33;;;;;;;7.78;4.88;;;;;;;-3.88;100.00;97220.97;15302934;19;20011;-83
2024/01/16 23:49:07;;;;;;;8.98;4.18;;;;;;;-3.93;100.00;97215.16;15305955;19;20007;-83
2024/01/16 23:54:33;;;;;;;6.72;3.75;;;;;;;-3.98;100.00;97211.16;15303773;19;20093;-84
2024/01/16 23:59:57;;;;;;;7.15;3.63;;;;;;;-4.03;100.00;97208.84;15305841;19;20016;-83
